Meteo Giornale » Osservazioni meteo Italia » Capo Bellavista

ore: 05:55 - Osservazioni Meteo Capo Bellavista
Lat. 39° 56' N Lon. 9° 43' E Alt. 138 metri s.l.m.

sereno Europe/Rome

27 °C

Sereno

Temp. 24 Ore

25 °C

32 °C

Ovest

18.5 Km/h

Dew point 23 °C

Umidità 78 %

Visibilità  10 Km

Il sole sorge alle ore 06:34

Il sole tramonta alle ore 20:15

Data e Ora Cielo e Fenomeni T °C DP °C Um. % Pres. hPa Vis. km Vento km/h
Oggi h: 05:55 sereno Sereno 27 23 78 1006 10 O 18.5
Oggi h: 04:55 coperto Coperto 27 23 78 1006 10 S/SE 7.4
Oggi h: 03:55 coperto Coperto 27 23 78 1009 10 E 33.3
Oggi h: 02:55 coperto Coperto 27 23 78 1008 8 N/NE 25.9
Oggi h: 01:55 coperto Coperto 27 23 78 1009 10 S/SE 7.4
Oggi h: 00:55 coperto Coperto 28 24 78 1009 8 N/NO 18.5
Ieri h: 23:55 coperto Coperto 28 24 78 1009 10 N 5.5
Ieri h: 22:55 coperto Coperto 28 24 78 1009 10 E 24
Ieri h: 21:55 molto_nuvoloso Molto Nuvoloso 28 25 83 1009 10 E 20.3
Ieri h: 20:55 molto_nuvoloso Molto Nuvoloso 28 25 83 1008 10 E/NE 14.8
Ieri h: 19:55 nuvoloso Nuvoloso 29 25 79 1008 10 N 5.5
Ieri h: 18:55 foschia Foschia 30 26 79 1008 5 SE 9.3
Ieri h: 17:55 foschia Foschia 30 26 79 1008 5 E 9.3
Ieri h: 16:55 foschia Foschia 30 26 79 1009 5 E/NE 16.7
Ieri h: 15:55 foschia Foschia 30 26 79 1009 6 E/NE 20.3
Ieri h: 14:55 molto_nuvoloso Molto Nuvoloso 30 26 79 1009 10 E/NE 25.9
Ieri h: 13:55 molto_nuvoloso Molto Nuvoloso 30 23 66 1010 10 E/NE 33.3
Ieri h: 12:55 molto_nuvoloso Molto Nuvoloso 32 24 62 1009 10 E 11.1
Ieri h: 11:55 sereno Sereno 32 24 62 1010 10 E 9.3
Ieri h: 10:55 sereno Sereno 30 24 70 1009 10 E 11.1
Ieri h: 09:55 sereno Sereno 30 24 70 1009 10 N 5.5
Ieri h: 08:55 coperto Coperto 27 22 74 1010 10 NO 9.3
Ieri h: 07:55 coperto Coperto 26 22 78 1009 10 SE 9.3
Ieri h: 06:55 nuvoloso Nuvoloso 25 22 83 1009 10 SE 9.3